Time;durP1;ratioP1;P1;durP2;ratioP2;P2;SDS_P1;SDS_P2;PMS_P1;PMS_P2;Temp;Humidity;BMP_temperature;BMP_pressure;BME280_temperature;BME280_humidity;BME280_pressure;Samples;Min_cycle;Max_cycle;Signal;HPM_P1;HPM_P2
2021/06/28 00:06:29;;;;;;;15.90;14.53;;;18.80;97.90;;;;;;5955802;23;20431;-92
2021/06/28 00:09:15;;;;;;;15.87;14.37;;;20.10;99.90;;;;;;4958370;29;20442;-90
2021/06/28 00:12:26;;;;;;;16.23;15.00;;;23.10;99.90;;;;;;4942847;29;20416;-91
2021/06/28 00:16:23;;;;;;;;;;;;;;;;;;;;;
2021/06/28 00:18:32;;;;;;;17.10;15.50;;;18.90;98.30;;;;;;4939027;29;20439;-92
2021/06/28 00:24:00;;;;;;;15.70;14.50;;;18.80;98.40;;;;;;5096558;23;20470;-92
2021/06/28 00:27:04;;;;;;;17.20;15.53;;;20.30;99.90;;;;;;4960779;29;20451;-92
2021/06/28 00:30:29;;;;;;;17.03;15.53;;;19.70;99.90;;;;;;4958883;29;20430;-92
2021/06/28 00:33:46;;;;;;;;;;;;;;;;;;;;;
2021/06/28 00:43:52;;;;;;;19.43;17.97;;;20.20;99.90;;;;;;4902706;29;20442;-92
2021/06/28 00:54:07;;;;;;;17.30;16.00;;;18.50;99.90;;;;;;5157446;23;20519;-93
2021/06/28 00:56:41;;;;;;;16.80;15.30;;;20.60;99.90;;;;;;4978376;28;20494;-92
2021/06/28 01:12:10;;;;;;;18.93;17.30;;;18.40;99.90;;;;;;4943338;28;20487;-93
2021/06/28 01:15:11;;;;;;;18.20;16.47;;;19.10;99.90;;;;;;4923879;29;20426;-92
2021/06/28 01:17:52;;;;;;;18.40;16.90;;;18.00;99.80;;;;;;4938246;29;20468;-92
2021/06/28 01:20:31;;;;;;;17.17;15.50;;;20.90;99.90;;;;;;4924845;29;20416;-92
2021/06/28 01:23:14;;;;;;;19.13;17.53;;;23.20;99.90;;;;;;4940470;29;20423;-92
2021/06/28 01:25:55;;;;;;;18.80;17.20;;;18.40;99.90;;;;;;4941108;29;20468;-91
2021/06/28 01:28:31;;;;;;;19.00;17.50;;;21.30;99.90;;;;;;4940413;29;20419;-93
2021/06/28 01:31:07;;;;;;;18.27;16.67;;;20.70;99.90;;;;;;4924507;29;20416;-93
2021/06/28 01:44:58;;;;;;;17.87;16.37;;;21.40;99.90;;;;;;4960011;28;20469;-92
2021/06/28 03:25:44;;;;;;;23.83;20.60;;;17.60;99.90;;;;;;4939666;29;20536;-92
2021/06/28 03:28:09;;;;;;;22.23;20.43;;;18.80;99.90;;;;;;4923745;29;20416;-90
2021/06/28 03:30:50;;;;;;;22.97;20.87;;;17.80;99.90;;;;;;4941235;29;20488;-92
2021/06/28 03:33:49;;;;;;;20.97;18.97;;;17.00;99.90;;;;;;4926223;29;20427;-92
2021/06/28 03:36:27;;;;;;;22.83;20.63;;;20.70;99.90;;;;;;4926403;29;20483;-92
2021/06/28 03:39:03;;;;;;;22.90;20.70;;;17.60;99.90;;;;;;4942054;29;20516;-92
2021/06/28 03:46:55;;;;;;;;;;;;;;;;;;;;;
2021/06/28 03:50:05;;;;;;;23.27;21.20;;;17.60;99.90;;;;;;4959603;29;20407;-90
2021/06/28 03:53:03;;;;;;;22.50;20.23;;;20.60;99.90;;;;;;4960100;29;20420;-91
2021/06/28 03:55:37;;;;;;;27.00;20.43;;;17.60;99.90;;;;;;4957890;29;20447;-93
2021/06/28 03:58:54;;;;;;;21.93;19.97;;;20.60;99.90;;;;;;4947705;29;20847;-92
2021/06/28 04:02:01;;;;;;;21.57;19.37;;;15.50;99.90;;;;;;4941065;29;20407;-92
2021/06/28 04:04:48;;;;;;;20.80;19.00;;;20.60;99.90;;;;;;4955039;29;20451;-91
2021/06/28 04:07:58;;;;;;;21.37;19.27;;;17.70;99.90;;;;;;4958901;29;20426;-91
2021/06/28 04:10:35;;;;;;;19.97;18.17;;;20.70;99.90;;;;;;4959780;29;20544;-93
2021/06/28 04:13:21;;;;;;;20.57;18.77;;;17.80;99.90;;;;;;4959829;29;20411;-92
2021/06/28 04:15:58;;;;;;;20.97;19.17;;;20.60;99.90;;;;;;4958126;29;20525;-92
2021/06/28 04:18:34;;;;;;;21.90;20.10;;;18.50;99.90;;;;;;4960826;28;20487;-92
2021/06/28 04:21:28;;;;;;;19.30;17.70;;;18.00;99.90;;;;;;4956917;29;20426;-93
2021/06/28 04:24:22;;;;;;;21.73;19.50;;;20.90;99.90;;;;;;4941829;29;20486;-92
2021/06/28 04:27:31;;;;;;;20.60;18.90;;;16.60;99.90;;;;;;4956815;29;20454;-93
2021/06/28 04:30:29;;;;;;;;;;;;;;;;;;;;;
2021/06/28 04:33:25;;;;;;;22.20;20.23;;;21.00;99.90;;;;;;4955688;29;20431;-92
2021/06/28 04:36:05;;;;;;;21.20;19.33;;;16.90;99.90;;;;;;4956636;29;20529;-91
2021/06/28 04:38:33;;;;;;;20.83;18.90;;;18.00;99.90;;;;;;4955920;29;20487;-90
2021/06/28 04:41:06;;;;;;;20.33;18.40;;;18.40;99.90;;;;;;4955668;29;20403;-92
2021/06/28 04:44:02;;;;;;;19.70;18.07;;;16.40;99.90;;;;;;4955034;29;20427;-92
2021/06/28 04:46:49;;;;;;;19.20;17.40;;;19.60;99.90;;;;;;4955048;29;20494;-91
2021/06/28 04:56:04;;;;;;;20.00;17.87;;;19.00;97.50;;;;;;5118074;23;20504;-91
2021/06/28 04:59:01;;;;;;;18.30;16.70;;;24.70;99.90;;;;;;4975691;28;20437;-91
2021/06/28 05:01:56;;;;;;;18.13;16.50;;;;;;;;;;5073520;23;20547;-92
2021/06/28 05:07:56;;;;;;;17.90;16.40;;;19.50;95.30;;;;;;5304357;23;20494;-93
2021/06/28 05:10:53;;;;;;;20.37;18.60;;;19.70;94.40;;;;;;4953195;29;20424;-91
2021/06/28 05:13:42;;;;;;;17.27;15.77;;;21.40;95.70;;;;;;4922186;29;21224;-90
2021/06/28 05:16:11;;;;;;;17.13;15.73;;;21.00;95.80;;;;;;4937577;29;20505;-92
2021/06/28 05:21:38;;;;;;;18.50;15.57;;;20.20;93.40;;;;;;4955786;29;20435;-91
2021/06/28 05:24:31;;;;;;;16.33;15.03;;;22.00;94.00;;;;;;4954528;29;20437;-91
2021/06/28 05:27:15;;;;;;;18.07;15.50;;;21.30;93.00;;;;;;4945590;28;20439;-92
2021/06/28 05:29:47;;;;;;;16.87;15.53;;;23.30;94.50;;;;;;4953720;29;20423;-92
2021/06/28 05:32:31;;;;;;;16.67;15.37;;;23.20;94.40;;;;;;4965370;28;20443;-91
2021/06/28 05:35:07;;;;;;;18.50;16.93;;;20.10;93.60;;;;;;4954342;28;20899;-93
2021/06/28 05:37:39;;;;;;;20.60;17.50;;;20.20;94.10;;;;;;4950520;29;20439;-92
2021/06/28 05:40:08;;;;;;;17.43;16.13;;;23.20;95.10;;;;;;4961661;28;20427;-91
2021/06/28 05:42:34;;;;;;;18.63;16.50;;;19.10;92.30;;;;;;4967519;29;20490;-92
2021/06/28 05:45:22;;;;;;;14.47;13.17;;;20.60;92.00;;;;;;4958533;29;20450;-90
2021/06/28 05:47:50;;;;;;;14.83;13.80;;;22.60;93.80;;;;;;4947333;29;20203;-91
2021/06/28 05:50:24;;;;;;;14.93;13.73;;;21.30;91.50;;;;;;4947362;29;20431;-89
2021/06/28 05:52:50;;;;;;;14.30;13.20;;;22.00;91.40;;;;;;4951232;28;20426;-92
2021/06/28 05:55:16;;;;;;;14.33;13.33;;;22.00;87.90;;;;;;4955197;28;20434;-90
2021/06/28 05:57:42;;;;;;;15.53;14.43;;;24.50;87.00;;;;;;4940205;29;20211;-90
2021/06/28 06:00:11;;;;;;;14.50;13.50;;;22.70;82.80;;;;;;4950754;28;20171;-91
2021/06/28 06:02:36;;;;;;;13.37;12.37;;;22.80;80.40;;;;;;4937157;29;20461;-90
2021/06/28 06:05:07;;;;;;;13.87;12.83;;;23.00;79.40;;;;;;4941027;29;20412;-91
2021/06/28 06:07:34;;;;;;;13.83;12.80;;;23.50;77.80;;;;;;4948222;29;20203;-89
2021/06/28 06:10:01;;;;;;;12.70;11.90;;;23.80;77.30;;;;;;4940587;29;20416;-91
2021/06/28 06:12:28;;;;;;;11.63;10.80;;;24.50;74.50;;;;;;4948122;28;20462;-90
2021/06/28 06:14:54;;;;;;;13.43;12.40;;;24.50;76.60;;;;;;4949631;29;20426;-90
2021/06/28 06:17:20;;;;;;;13.63;12.73;;;26.30;74.40;;;;;;4954624;29;20477;-90
2021/06/28 06:19:45;;;;;;;13.63;12.53;;;26.70;74.60;;;;;;4956779;28;20222;-90
2021/06/28 06:22:11;;;;;;;12.33;11.63;;;24.90;72.90;;;;;;4958979;29;20188;-90
2021/06/28 06:24:37;;;;;;;13.50;12.60;;;26.30;75.40;;;;;;4969845;28;20186;-89
2021/06/28 06:27:06;;;;;;;13.83;12.70;;;26.00;70.50;;;;;;4957069;29;20183;-89
2021/06/28 06:29:32;;;;;;;12.70;11.70;;;25.70;67.50;;;;;;4956594;29;20169;-91
2021/06/28 06:31:58;;;;;;;12.60;11.70;;;26.10;64.80;;;;;;4963922;28;20422;-91
2021/06/28 06:34:24;;;;;;;12.87;12.03;;;26.50;64.00;;;;;;4947274;29;20442;-91
2021/06/28 06:36:51;;;;;;;12.40;11.60;;;27.00;61.10;;;;;;4921019;29;20215;-91
2021/06/28 06:39:17;;;;;;;12.07;11.20;;;28.20;60.50;;;;;;4912682;29;20432;-92
2021/06/28 06:41:43;;;;;;;13.20;12.30;;;26.70;59.90;;;;;;4909669;29;20432;-90
2021/06/28 06:44:08;;;;;;;12.00;11.30;;;27.10;59.10;;;;;;4916198;29;20268;-92
2021/06/28 06:46:35;;;;;;;12.90;12.03;;;27.10;59.30;;;;;;4918061;29;20523;-90
2021/06/28 06:49:01;;;;;;;13.00;11.90;;;26.40;59.90;;;;;;4913651;29;20172;-95
2021/06/28 06:51:27;;;;;;;12.77;11.67;;;26.90;60.80;;;;;;4919359;29;20435;-91
2021/06/28 06:53:53;;;;;;;12.70;11.80;;;28.20;60.40;;;;;;4911441;29;20186;-92
2021/06/28 06:56:19;;;;;;;12.23;11.43;;;26.90;59.70;;;;;;4919660;29;20472;-92
2021/06/28 06:58:45;;;;;;;12.20;11.37;;;27.60;57.50;;;;;;4931731;29;20227;-94
2021/06/28 07:01:16;;;;;;;13.23;12.33;;;28.20;56.00;;;;;;4912989;29;20251;-90
2021/06/28 07:06:48;;;;;;;11.40;10.70;;;28.60;53.40;;;;;;4919309;29;20432;-91
2021/06/28 07:09:17;;;;;;;10.50;10.00;;;30.20;54.60;;;;;;4935153;29;20424;-93
2021/06/28 07:11:49;;;;;;;11.53;10.80;;;30.50;51.20;;;;;;4940579;29;20424;-95
2021/06/28 07:14:39;;;;;;;10.40;9.90;;;31.50;51.50;;;;;;4928681;29;20428;-94
2021/06/28 07:17:05;;;;;;;10.60;10.00;;;30.10;51.80;;;;;;4935204;29;20476;-92
2021/06/28 07:19:31;;;;;;;11.37;10.57;;;29.50;53.90;;;;;;4933552;29;20472;-89
2021/06/28 07:22:03;;;;;;;12.67;11.57;;;29.70;54.40;;;;;;4939979;29;20208;-94
2021/06/28 07:24:53;;;;;;;11.83;11.03;;;31.00;54.70;;;;;;4935353;29;20214;-91
2021/06/28 07:27:26;;;;;;;11.23;10.63;;;28.30;54.60;;;;;;4934527;29;20409;-95
2021/06/28 07:29:52;;;;;;;12.57;11.60;;;28.40;57.70;;;;;;4934847;29;20482;-92
2021/06/28 07:32:34;;;;;;;12.00;11.40;;;27.80;57.40;;;;;;4954998;29;20415;-93
2021/06/28 07:35:11;;;;;;;11.20;10.60;;;31.10;59.20;;;;;;4957221;29;20167;-94
2021/06/28 07:37:55;;;;;;;15.90;11.17;;;27.80;58.00;;;;;;4653927;23;10002280;-92
2021/06/28 07:40:27;;;;;;;11.83;11.20;;;28.00;57.30;;;;;;4957829;29;20195;-91
2021/06/28 07:48:37;;;;;;;10.80;10.27;;;29.90;53.00;;;;;;5200029;23;20495;-93
2021/06/28 07:51:03;;;;;;;10.67;10.03;;;30.50;51.40;;;;;;4918449;29;20420;-90
2021/06/28 07:56:20;;;;;;;11.70;10.87;;;30.70;50.20;;;;;;5428145;23;20493;-92
2021/06/28 07:58:55;;;;;;;13.17;12.27;;;30.40;51.90;;;;;;5453073;23;20462;-91
2021/06/28 08:01:48;;;;;;;12.50;11.60;;;31.50;52.40;;;;;;5045369;23;20497;-92
2021/06/28 08:04:57;;;;;;;12.00;11.38;;;29.70;52.10;;;;;;4573638;23;15057512;-91
2021/06/28 08:07:44;;;;;;;;;;;;;;;;;;;;;
2021/06/28 08:17:51;;;;;;;11.30;10.70;;;27.90;57.50;;;;;;4953992;29;20467;-90
2021/06/28 08:20:20;;;;;;;13.17;12.07;;;26.80;57.80;;;;;;4921530;29;20419;-94
2021/06/28 08:22:46;;;;;;;11.47;10.90;;;29.10;59.00;;;;;;4948509;29;20431;-92
2021/06/28 08:25:13;;;;;;;10.83;10.23;;;27.90;58.20;;;;;;4944991;29;20419;-91
2021/06/28 08:27:41;;;;;;;11.80;11.10;;;29.60;58.70;;;;;;4939982;29;20450;-90
2021/06/28 08:30:08;;;;;;;12.53;11.73;;;28.40;57.00;;;;;;4940481;29;20434;-91
2021/06/28 08:32:35;;;;;;;10.80;10.10;;;28.70;56.20;;;;;;4939744;29;20426;-93
2021/06/28 08:35:00;;;;;;;11.30;10.73;;;29.20;56.00;;;;;;4941608;29;20423;-90
2021/06/28 08:37:33;;;;;;;11.10;10.30;;;30.90;54.20;;;;;;4941419;29;20478;-90
2021/06/28 08:39:58;;;;;;;11.23;10.63;;;31.90;51.00;;;;;;4942216;29;20172;-91
2021/06/28 08:42:24;;;;;;;10.80;10.20;;;32.90;50.00;;;;;;4946856;29;20429;-93
2021/06/28 08:44:51;;;;;;;10.07;9.27;;;33.40;47.60;;;;;;4957540;29;20166;-89
2021/06/28 08:47:21;;;;;;;9.27;8.50;;;34.30;45.00;;;;;;4942565;29;20168;-92
2021/06/28 08:49:48;;;;;;;9.20;8.77;;;35.50;43.40;;;;;;4942453;29;20482;-92
2021/06/28 08:52:14;;;;;;;10.17;9.43;;;35.70;43.90;;;;;;4943214;29;20432;-87
2021/06/28 08:54:40;;;;;;;8.40;8.20;;;35.60;42.30;;;;;;4959560;29;20419;-93
2021/06/28 08:57:06;;;;;;;9.70;9.03;;;36.20;42.60;;;;;;4941809;29;20258;-92
2021/06/28 08:59:31;;;;;;;10.57;9.73;;;35.80;41.30;;;;;;4596095;29;9999618;-87
2021/06/28 09:02:00;;;;;;;10.80;10.13;;;35.50;42.30;;;;;;4937397;29;20195;-90
2021/06/28 09:04:25;;;;;;;11.13;10.53;;;34.00;43.50;;;;;;4919049;29;20258;-89
2021/06/28 09:06:51;;;;;;;11.17;10.67;;;33.50;45.30;;;;;;4936222;29;20474;-88
2021/06/28 09:09:18;;;;;;;10.73;10.23;;;32.70;44.70;;;;;;4919426;29;20172;-88
2021/06/28 09:11:51;;;;;;;10.83;10.30;;;32.70;45.10;;;;;;4920946;29;20217;-88
2021/06/28 09:14:18;;;;;;;11.23;10.67;;;33.50;46.30;;;;;;4920609;29;20835;-88
2021/06/28 09:16:46;;;;;;;10.70;10.10;;;31.90;46.90;;;;;;4938353;29;20848;-88
2021/06/28 09:19:14;;;;;;;11.90;11.30;;;31.20;47.30;;;;;;4920656;29;20416;-88
2021/06/28 09:21:42;;;;;;;12.03;11.20;;;32.40;48.50;;;;;;4938246;29;20418;-90
2021/06/28 09:24:30;;;;;;;12.13;11.37;;;31.80;49.20;;;;;;4937837;29;20411;-89
2021/06/28 09:27:17;;;;;;;11.70;11.10;;;30.90;48.80;;;;;;4938260;29;20407;-90
2021/06/28 09:29:52;;;;;;;11.67;10.87;;;30.90;48.50;;;;;;4921605;29;20423;-89
2021/06/28 09:32:19;;;;;;;11.30;10.70;;;31.00;48.20;;;;;;4936438;29;20505;-89
2021/06/28 09:34:47;;;;;;;14.57;13.77;;;31.00;47.70;;;;;;4937537;29;20446;-88
2021/06/28 09:37:18;;;;;;;12.13;11.43;;;31.40;48.60;;;;;;4940603;29;20462;-88
2021/06/28 09:39:49;;;;;;;11.10;10.40;;;31.80;47.20;;;;;;4938977;29;20941;-88
2021/06/28 09:42:22;;;;;;;11.30;10.77;;;32.80;46.30;;;;;;4921087;29;20407;-88
2021/06/28 09:44:55;;;;;;;11.67;10.87;;;33.40;44.10;;;;;;4936252;29;20486;-90
2021/06/28 09:47:32;;;;;;;9.63;9.20;;;34.90;43.10;;;;;;4920733;29;20915;-88
2021/06/28 09:50:07;;;;;;;10.67;10.07;;;35.40;41.60;;;;;;4940276;29;20407;-88
2021/06/28 09:52:42;;;;;;;11.30;10.60;;;35.90;41.30;;;;;;4919892;29;20431;-88
2021/06/28 09:55:33;;;;;;;10.07;9.27;;;36.20;41.00;;;;;;4903563;29;20424;-91
2021/06/28 09:58:24;;;;;;;10.50;10.00;;;36.40;40.10;;;;;;4902535;29;20440;-89
2021/06/28 10:00:54;;;;;;;10.43;10.00;;;36.60;40.30;;;;;;4902447;29;20432;-91
2021/06/28 10:03:27;;;;;;;10.40;10.00;;;36.60;39.20;;;;;;4925726;29;20419;-89
2021/06/28 10:06:02;;;;;;;10.93;10.33;;;36.20;39.20;;;;;;4937711;29;20418;-89
2021/06/28 10:08:33;;;;;;;11.67;10.77;;;35.90;40.30;;;;;;4921310;29;20443;-88
2021/06/28 10:11:15;;;;;;;11.27;10.77;;;35.80;40.50;;;;;;4939215;29;20468;-90
2021/06/28 10:13:44;;;;;;;12.10;11.27;;;35.50;40.60;;;;;;4938672;29;20411;-88
2021/06/28 10:16:10;;;;;;;12.23;11.73;;;35.30;41.20;;;;;;4939463;29;20554;-88
2021/06/28 10:18:43;;;;;;;10.87;10.47;;;35.80;43.30;;;;;;4930977;29;20434;-91
2021/06/28 10:21:26;;;;;;;13.60;12.90;;;33.80;40.90;;;;;;4937339;29;20262;-92
2021/06/28 10:23:55;;;;;;;12.97;12.27;;;34.00;43.00;;;;;;4949167;29;20419;-91
2021/06/28 10:26:23;;;;;;;12.57;11.87;;;33.00;44.00;;;;;;4945949;29;20427;-91
2021/06/28 10:28:51;;;;;;;11.60;11.00;;;32.70;43.60;;;;;;4947380;29;20471;-88
2021/06/28 10:31:16;;;;;;;12.03;11.37;;;31.70;43.90;;;;;;4952070;29;20419;-91
2021/06/28 10:33:50;;;;;;;12.20;11.50;;;31.60;47.00;;;;;;4956037;29;20414;-88
2021/06/28 10:36:19;;;;;;;14.10;13.00;;;31.50;46.20;;;;;;4948959;29;20227;-89
2021/06/28 10:38:51;;;;;;;13.20;12.20;;;31.60;46.40;;;;;;4943886;29;20430;-92
2021/06/28 10:41:38;;;;;;;12.47;11.67;;;31.80;46.00;;;;;;4927032;29;20499;-90
2021/06/28 10:44:08;;;;;;;11.87;11.33;;;31.80;47.40;;;;;;4923879;29;20439;-89
2021/06/28 10:46:36;;;;;;;13.20;12.30;;;32.30;45.50;;;;;;4925769;29;20414;-91
2021/06/28 10:49:03;;;;;;;11.33;10.73;;;32.70;45.10;;;;;;4929056;29;20451;-90
2021/06/28 10:51:46;;;;;;;12.00;11.40;;;32.80;44.70;;;;;;4931985;29;20404;-90
2021/06/28 10:54:15;;;;;;;11.03;10.57;;;32.80;43.70;;;;;;4932830;29;20427;-90
2021/06/28 10:56:46;;;;;;;12.10;11.40;;;32.60;44.40;;;;;;4934776;29;20477;-90
2021/06/28 10:59:14;;;;;;;12.63;11.90;;;32.50;45.50;;;;;;4933413;29;20428;-89
2021/06/28 11:01:45;;;;;;;14.30;13.30;;;31.50;46.30;;;;;;4933483;29;20443;-89
2021/06/28 11:04:15;;;;;;;12.53;11.93;;;31.10;46.80;;;;;;4930613;29;20408;-91
2021/06/28 11:06:59;;;;;;;11.70;11.10;;;30.90;48.20;;;;;;4932064;29;20408;-89
2021/06/28 11:09:51;;;;;;;12.37;11.60;;;30.80;48.20;;;;;;4930606;29;20420;-89
2021/06/28 11:12:35;;;;;;;11.47;10.80;;;31.30;48.60;;;;;;4929749;29;20419;-89
2021/06/28 11:15:25;;;;;;;11.10;10.50;;;31.50;47.50;;;;;;4930171;29;20436;-88
2021/06/28 11:17:56;;;;;;;12.10;11.40;;;32.40;45.30;;;;;;4914553;29;20445;-88
2021/06/28 11:20:51;;;;;;;11.00;10.50;;;33.40;46.20;;;;;;4947562;29;20420;-90
2021/06/28 11:23:19;;;;;;;11.57;11.00;;;33.00;44.50;;;;;;4954271;29;20519;-89
2021/06/28 11:25:55;;;;;;;10.70;10.20;;;32.80;45.30;;;;;;4953949;29;20483;-87
2021/06/28 11:28:42;;;;;;;11.33;10.83;;;32.30;44.40;;;;;;4951998;29;20454;-89
2021/06/28 11:31:13;;;;;;;11.70;11.20;;;32.20;44.90;;;;;;4957137;29;20415;-90
2021/06/28 11:33:45;;;;;;;11.40;10.60;;;31.90;44.70;;;;;;4938793;29;20426;-90
2021/06/28 11:36:22;;;;;;;12.63;11.83;;;32.00;44.60;;;;;;4954823;29;20546;-88
2021/06/28 11:38:49;;;;;;;11.53;10.73;;;33.20;45.90;;;;;;4951569;29;20411;-91
2021/06/28 11:41:23;;;;;;;11.90;11.30;;;32.40;44.10;;;;;;4950219;29;20423;-91
2021/06/28 11:44:12;;;;;;;11.97;11.17;;;32.20;43.50;;;;;;4951601;29;20419;-92
2021/06/28 11:46:41;;;;;;;10.57;9.77;;;32.70;43.30;;;;;;4944455;29;20420;-89
2021/06/28 11:49:23;;;;;;;11.07;10.60;;;33.00;43.40;;;;;;4947394;29;20489;-91
2021/06/28 11:54:36;;;;;;;10.13;9.73;;;34.20;41.20;;;;;;5360139;23;20498;-91
2021/06/28 11:57:03;;;;;;;10.60;9.80;;;35.20;41.50;;;;;;5109950;23;20519;-90
2021/06/28 11:59:31;;;;;;;10.83;10.03;;;35.50;40.50;;;;;;4966396;28;20477;-92
2021/06/28 12:05:10;;;;;;;11.00;10.40;;;36.50;38.00;;;;;;5169396;23;20510;-92
2021/06/28 12:07:40;;;;;;;9.60;9.00;;;37.00;38.30;;;;;;5052442;23;21382;-93
2021/06/28 12:10:09;;;;;;;8.97;8.67;;;37.40;37.40;;;;;;4987472;28;20445;-92
2021/06/28 12:18:09;;;;;;;9.17;8.87;;;39.40;35.40;;;;;;5382009;23;20663;-93
2021/06/28 12:20:36;;;;;;;8.47;8.17;;;39.70;35.50;;;;;;4979641;23;20555;-91
2021/06/28 12:23:24;;;;;;;;;;;;;;;;;;;;;
2021/06/28 12:25:51;;;;;;;10.07;9.70;;;40.20;35.40;;;;;;5178206;23;20519;-93
2021/06/28 12:28:28;;;;;;;9.47;9.07;;;38.70;35.70;;;;;;4945217;29;20445;-92
2021/06/28 12:30:55;;;;;;;8.30;7.93;;;39.20;34.80;;;;;;4949434;29;20430;-90
2021/06/28 12:33:24;;;;;;;9.00;8.60;;;39.40;34.60;;;;;;4948118;29;20450;-91
2021/06/28 12:36:01;;;;;;;6.83;6.63;;;38.90;35.80;;;;;;4951288;29;20474;-92
2021/06/28 12:38:27;;;;;;;7.17;6.60;;;38.50;34.10;;;;;;4961672;29;20739;-93
2021/06/28 12:41:13;;;;;;;6.67;6.33;;;38.50;35.10;;;;;;4947927;29;20441;-95
2021/06/28 12:43:41;;;;;;;6.17;5.97;;;38.70;33.90;;;;;;4952881;29;20412;-90
2021/06/28 12:46:09;;;;;;;6.73;6.20;;;39.90;35.10;;;;;;4952669;29;20470;-93
2021/06/28 12:48:35;;;;;;;6.60;6.50;;;37.60;33.60;;;;;;4949163;29;20520;-91
2021/06/28 12:51:04;;;;;;;6.47;6.27;;;37.10;35.80;;;;;;4953150;29;20431;-92
2021/06/28 12:53:31;;;;;;;5.93;5.80;;;36.80;35.40;;;;;;4946671;29;20499;-94
2021/06/28 12:56:18;;;;;;;7.10;6.90;;;36.30;34.90;;;;;;4948200;29;20486;-94
2021/06/28 12:58:52;;;;;;;6.40;6.20;;;36.90;35.20;;;;;;4951584;29;20423;-95
2021/06/28 13:01:33;;;;;;;6.03;5.73;;;37.20;34.80;;;;;;4947779;29;20795;-91
2021/06/28 13:04:24;;;;;;;6.60;6.40;;;37.10;35.00;;;;;;4947121;29;20407;-92
2021/06/28 13:06:55;;;;;;;6.43;6.30;;;37.40;35.00;;;;;;4951902;29;20420;-90
2021/06/28 13:09:24;;;;;;;5.67;5.47;;;37.50;34.50;;;;;;4945542;29;20445;-93
2021/06/28 13:11:57;;;;;;;6.00;5.90;;;38.10;34.60;;;;;;4958836;28;20439;-91
2021/06/28 13:14:53;;;;;;;5.73;5.63;;;37.90;33.00;;;;;;4946453;29;21005;-92
2021/06/28 13:17:34;;;;;;;6.20;6.10;;;37.20;34.60;;;;;;4933614;29;20460;-92
2021/06/28 13:20:00;;;;;;;6.47;6.37;;;36.30;35.80;;;;;;4944385;29;20440;-90
2021/06/28 13:22:26;;;;;;;6.77;6.57;;;35.00;35.60;;;;;;4935009;29;20452;-91
2021/06/28 13:24:53;;;;;;;5.97;5.87;;;34.00;36.60;;;;;;4925494;29;20229;-87
2021/06/28 13:27:32;;;;;;;6.57;6.47;;;33.80;37.60;;;;;;4939293;29;20423;-90
2021/06/28 13:29:58;;;;;;;6.17;5.97;;;33.50;37.50;;;;;;4921960;29;20430;-91
2021/06/28 13:32:27;;;;;;;6.30;6.10;;;33.30;38.10;;;;;;4921180;29;20514;-92
2021/06/28 13:34:56;;;;;;;6.37;6.17;;;32.60;38.60;;;;;;4922266;29;20455;-89
2021/06/28 13:37:28;;;;;;;6.80;6.60;;;31.40;40.10;;;;;;4940216;29;20546;-91
2021/06/28 13:39:58;;;;;;;6.70;6.50;;;31.40;41.20;;;;;;4942023;29;20868;-91
2021/06/28 13:42:33;;;;;;;6.33;6.13;;;30.80;40.60;;;;;;4931433;29;20419;-91
2021/06/28 13:45:13;;;;;;;6.17;5.97;;;30.60;41.30;;;;;;4937362;29;20501;-90
2021/06/28 13:47:50;;;;;;;7.20;6.90;;;30.40;41.80;;;;;;4944600;29;20494;-89
2021/06/28 13:50:36;;;;;;;6.50;6.30;;;30.70;43.90;;;;;;4922075;29;20454;-89
2021/06/28 13:53:13;;;;;;;7.07;6.77;;;29.80;44.10;;;;;;4920200;29;20462;-87
2021/06/28 13:55:41;;;;;;;7.80;7.40;;;29.60;45.40;;;;;;4938570;29;20953;-90
2021/06/28 13:58:13;;;;;;;10.50;9.47;;;31.30;47.10;;;;;;4919385;29;20431;-90
2021/06/28 14:00:44;;;;;;;7.67;7.10;;;30.30;49.10;;;;;;4936572;29;20419;-92
2021/06/28 14:03:13;;;;;;;6.90;6.70;;;27.40;46.10;;;;;;4925219;29;21244;-91
2021/06/28 14:05:39;;;;;;;8.20;7.70;;;29.60;47.10;;;;;;4947305;28;20434;-90
2021/06/28 14:08:10;;;;;;;7.83;7.53;;;29.60;47.40;;;;;;4940268;29;20427;-88
2021/06/28 14:10:36;;;;;;;7.87;7.17;;;31.00;47.90;;;;;;4924284;29;20829;-90
2021/06/28 14:13:07;;;;;;;8.17;7.77;;;30.20;46.90;;;;;;4929590;29;20430;-89
2021/06/28 14:15:34;;;;;;;7.30;7.10;;;30.30;46.30;;;;;;4962048;28;20457;-89
2021/06/28 14:17:59;;;;;;;7.33;7.10;;;31.30;44.90;;;;;;4962425;29;20426;-91
2021/06/28 14:20:29;;;;;;;6.70;6.47;;;31.50;43.70;;;;;;4962145;28;20473;-89
2021/06/28 14:22:56;;;;;;;6.53;6.30;;;31.80;44.90;;;;;;4960312;28;20641;-90
2021/06/28 14:25:22;;;;;;;6.43;6.23;;;32.50;43.20;;;;;;4961746;28;20810;-90
2021/06/28 14:27:49;;;;;;;5.80;5.60;;;33.20;42.50;;;;;;4962779;28;20426;-90
2021/06/28 14:30:17;;;;;;;5.70;5.57;;;33.50;41.20;;;;;;4960878;28;20849;-90
2021/06/28 14:32:44;;;;;;;6.07;5.77;;;32.90;40.80;;;;;;4962321;28;20421;-89
2021/06/28 14:35:11;;;;;;;5.90;5.70;;;32.10;40.80;;;;;;4944626;28;20422;-89
2021/06/28 14:37:39;;;;;;;5.73;5.57;;;34.20;42.30;;;;;;4944701;29;20497;-87
2021/06/28 14:40:06;;;;;;;6.30;6.00;;;32.40;41.10;;;;;;4963599;28;20418;-89
2021/06/28 14:42:32;;;;;;;6.97;6.67;;;32.70;41.50;;;;;;4961857;28;20426;-88
2021/06/28 14:45:26;;;;;;;6.57;6.27;;;33.20;41.60;;;;;;4954559;29;20956;-92
2021/06/28 14:47:52;;;;;;;6.07;5.70;;;32.90;42.20;;;;;;4954323;28;20449;-91
2021/06/28 14:50:21;;;;;;;7.10;6.70;;;32.30;41.20;;;;;;4956936;29;20422;-89
2021/06/28 14:52:57;;;;;;;6.03;5.93;;;32.10;43.50;;;;;;4942024;29;20212;-90
2021/06/28 14:55:27;;;;;;;6.13;5.83;;;31.70;42.60;;;;;;4957255;29;20430;-91
2021/06/28 14:57:54;;;;;;;7.20;7.00;;;31.40;43.30;;;;;;4943701;29;20425;-91
2021/06/28 15:00:24;;;;;;;6.90;6.70;;;30.80;45.40;;;;;;4974008;28;20532;-91
2021/06/28 15:05:43;;;;;;;6.03;5.83;;;30.10;45.40;;;;;;5066774;23;20502;-89
2021/06/28 15:08:11;;;;;;;6.20;6.03;;;30.20;44.30;;;;;;5047887;23;20485;-90
2021/06/28 15:10:37;;;;;;;10.63;9.87;;;31.30;48.50;;;;;;4986078;28;20421;-91
2021/06/28 15:13:03;;;;;;;6.40;6.17;;;30.70;47.90;;;;;;4979414;28;20724;-90
2021/06/28 15:15:29;;;;;;;14.73;13.90;;;29.80;48.80;;;;;;4977269;28;20174;-87
2021/06/28 15:17:54;;;;;;;7.50;6.90;;;29.60;50.10;;;;;;4977443;28;20170;-89
2021/06/28 15:20:20;;;;;;;8.20;7.53;;;31.30;50.00;;;;;;4980421;28;20169;-87
2021/06/28 15:22:48;;;;;;;7.50;7.07;;;29.10;49.80;;;;;;4978467;28;20174;-90
2021/06/28 15:25:17;;;;;;;6.10;6.00;;;29.00;50.20;;;;;;4978802;28;20348;-89
2021/06/28 15:27:46;;;;;;;5.73;5.63;;;29.90;50.10;;;;;;4978158;28;20430;-88
2021/06/28 15:30:17;;;;;;;6.00;5.80;;;27.60;48.10;;;;;;4993811;28;20430;-89
2021/06/28 15:32:43;;;;;;;5.57;5.33;;;29.10;49.40;;;;;;4965879;28;20446;-89
2021/06/28 15:35:10;;;;;;;5.57;5.47;;;29.30;49.60;;;;;;4958675;28;20874;-91
2021/06/28 15:37:38;;;;;;;5.30;5.20;;;29.40;49.50;;;;;;4977567;28;20511;-92
2021/06/28 15:40:06;;;;;;;4.80;4.60;;;31.80;50.60;;;;;;4978059;28;20397;-91
2021/06/28 15:42:32;;;;;;;5.50;5.30;;;29.40;48.10;;;;;;4978191;28;20417;-91
2021/06/28 15:44:57;;;;;;;4.73;4.53;;;29.30;48.10;;;;;;4979456;28;20631;-90
2021/06/28 15:47:23;;;;;;;6.83;6.23;;;28.80;48.60;;;;;;4978814;28;20669;-90
2021/06/28 15:49:51;;;;;;;6.67;6.10;;;28.30;49.40;;;;;;4979537;28;20170;-90
2021/06/28 15:52:17;;;;;;;6.00;5.80;;;29.10;49.90;;;;;;4978850;28;20186;-90
2021/06/28 15:54:49;;;;;;;6.33;6.13;;;28.90;49.30;;;;;;4981755;28;20926;-89
2021/06/28 15:57:15;;;;;;;5.73;5.43;;;29.10;51.10;;;;;;4975351;28;20476;-90
2021/06/28 15:59:41;;;;;;;5.77;5.47;;;29.20;49.50;;;;;;4977944;28;20413;-90
2021/06/28 16:02:10;;;;;;;5.97;5.77;;;29.30;48.90;;;;;;4991408;28;20190;-89
2021/06/28 16:04:36;;;;;;;5.43;5.10;;;29.20;50.10;;;;;;4977680;28;20500;-90
2021/06/28 16:07:04;;;;;;;6.07;5.67;;;27.30;49.70;;;;;;4992216;28;20437;-88
2021/06/28 16:09:30;;;;;;;7.27;6.87;;;28.80;51.10;;;;;;4976943;28;20170;-89
2021/06/28 16:11:56;;;;;;;5.97;5.70;;;31.00;51.80;;;;;;4992310;28;20483;-91
2021/06/28 16:14:23;;;;;;;6.07;5.87;;;28.80;50.90;;;;;;4994259;28;20181;-90
2021/06/28 16:16:50;;;;;;;5.97;5.70;;;28.20;52.70;;;;;;4993267;28;20257;-90
2021/06/28 16:19:18;;;;;;;6.77;6.47;;;29.70;51.10;;;;;;4978278;28;20421;-87
2021/06/28 16:21:47;;;;;;;6.13;5.93;;;28.80;51.70;;;;;;4992874;28;20959;-90
2021/06/28 16:24:12;;;;;;;6.77;6.47;;;29.20;52.20;;;;;;4976848;28;20575;-90
2021/06/28 16:26:41;;;;;;;6.17;5.90;;;29.20;51.80;;;;;;4978412;28;20877;-90
2021/06/28 16:29:16;;;;;;;6.63;6.43;;;28.70;51.90;;;;;;4979098;28;20289;-90
2021/06/28 16:31:43;;;;;;;6.77;6.17;;;28.50;51.80;;;;;;4980647;28;20401;-88
2021/06/28 16:34:09;;;;;;;6.90;6.50;;;29.50;53.00;;;;;;4978962;28;20414;-90